createdAt,value
2022-10-13T00:02:03.949Z,32.32
2022-10-13T00:04:12.277Z,32.46
2022-10-13T00:06:21.931Z,32.55
2022-10-13T00:08:28.739Z,32.62
2022-10-13T00:10:38.484Z,32.65
2022-10-13T00:12:46.124Z,32.70
2022-10-13T00:14:54.575Z,32.82
2022-10-13T00:17:01.322Z,32.95
2022-10-13T00:19:11.698Z,33.13
2022-10-13T00:21:24.714Z,33.21
2022-10-13T00:23:31.360Z,33.40
2022-10-13T00:25:43.798Z,33.44
2022-10-13T00:27:50.443Z,33.62
2022-10-13T00:29:59.967Z,33.80
2022-10-13T00:32:06.877Z,33.71
2022-10-13T00:34:13.704Z,34.07
2022-10-13T00:36:21.671Z,34.10
2022-10-13T00:38:28.542Z,34.29
2022-10-13T00:40:35.574Z,34.28
2022-10-13T00:42:43.303Z,34.46
2022-10-13T00:45:03.402Z,34.94
2022-10-13T00:47:11.237Z,34.90
2022-10-13T00:49:18.342Z,35.06
2022-10-13T00:51:31.218Z,35.22
2022-10-13T00:53:39.546Z,35.28
2022-10-13T00:55:49.064Z,35.52
2022-10-13T00:58:05.143Z,35.72
2022-10-13T01:00:13.337Z,35.86
2022-10-13T01:02:21.055Z,35.96
2022-10-13T01:04:38.523Z,36.29
2022-10-13T01:06:45.637Z,36.50
2022-10-13T01:08:52.980Z,36.56
2022-10-13T01:11:04.792Z,36.89
2022-10-13T01:13:51.385Z,37.00
2022-10-13T01:16:23.213Z,37.08
2022-10-13T01:19:10.170Z,37.15
2022-10-13T01:21:18.825Z,37.43
2022-10-13T01:23:53.883Z,37.57
2022-10-13T01:26:36.548Z,37.70
2022-10-13T01:29:14.237Z,37.81
2022-10-13T01:31:32.514Z,37.90
2022-10-13T01:34:07.679Z,37.82
2022-10-13T01:36:52.611Z,37.69
2022-10-13T01:39:31.517Z,37.82
2022-10-13T01:41:41.521Z,37.76
2022-10-13T01:44:08.359Z,37.97
2022-10-13T01:46:24.112Z,38.15
2022-10-13T01:48:31.570Z,38.26
2022-10-13T01:50:39.634Z,38.25
2022-10-13T01:52:46.627Z,38.42
2022-10-13T01:54:54.206Z,38.54
2022-10-13T01:57:00.409Z,38.71
2022-10-13T01:59:16.152Z,38.98
2022-10-13T02:01:53.774Z,39.05
2022-10-13T02:04:00.914Z,39.23
2022-10-13T02:06:41.258Z,39.40
2022-10-13T02:09:23.200Z,39.46
2022-10-13T02:11:29.139Z,39.57
2022-10-13T02:13:39.275Z,39.70
2022-10-13T02:15:50.582Z,39.83
2022-10-13T02:17:57.621Z,39.86
2022-10-13T02:20:08.011Z,39.99
2022-10-13T02:22:16.958Z,40.10
2022-10-13T02:24:23.696Z,40.26
2022-10-13T02:26:33.067Z,40.36
2022-10-13T02:28:45.026Z,40.48
2022-10-13T02:30:51.153Z,40.62
2022-10-13T02:32:57.829Z,40.61
2022-10-13T02:35:04.534Z,40.78
2022-10-13T02:37:10.614Z,41.02
2022-10-13T02:39:18.918Z,41.16
2022-10-13T02:41:25.034Z,41.15
2022-10-13T02:43:32.054Z,41.37
2022-10-13T02:45:38.661Z,41.42
2022-10-13T02:47:44.857Z,41.57
2022-10-13T02:49:51.222Z,41.69
2022-10-13T02:51:57.368Z,41.80
2022-10-13T02:54:03.661Z,41.86
2022-10-13T02:56:10.210Z,42.04
2022-10-13T02:58:16.778Z,42.19
2022-10-13T03:00:22.829Z,42.44
2022-10-13T03:02:30.123Z,42.35
2022-10-13T03:04:36.636Z,42.65
2022-10-13T03:06:42.937Z,42.78
2022-10-13T03:08:50.720Z,42.96
2022-10-13T03:10:56.999Z,43.13
2022-10-13T03:13:03.877Z,43.16
2022-10-13T03:15:10.684Z,43.30
2022-10-13T03:17:16.807Z,43.32
2022-10-13T03:19:23.337Z,43.49
2022-10-13T03:21:29.987Z,43.52
2022-10-13T03:23:36.315Z,43.64
2022-10-13T03:25:42.487Z,43.90
2022-10-13T03:27:48.607Z,43.69
2022-10-13T03:29:54.762Z,43.86
2022-10-13T03:32:00.941Z,43.95
2022-10-13T03:34:07.220Z,44.18
2022-10-13T03:36:15.045Z,44.23
2022-10-13T03:38:21.705Z,44.47
2022-10-13T03:40:27.771Z,44.59
2022-10-13T03:42:34.054Z,44.75
2022-10-13T03:44:40.326Z,44.91
2022-10-13T03:46:46.494Z,45.09
2022-10-13T03:48:52.626Z,45.35
2022-10-13T03:50:59.157Z,45.44
2022-10-13T03:53:06.052Z,45.40
2022-10-13T03:55:13.495Z,45.72
2022-10-13T03:57:20.200Z,45.77
2022-10-13T03:59:26.256Z,45.85
2022-10-13T04:01:34.501Z,46.01
2022-10-13T04:03:41.027Z,46.12
2022-10-13T04:05:47.660Z,46.28
2022-10-13T04:07:54.716Z,46.33
2022-10-13T04:10:08.977Z,46.46
2022-10-13T04:12:20.872Z,46.66
2022-10-13T04:14:28.017Z,46.73
2022-10-13T04:16:40.829Z,46.74
2022-10-13T04:18:47.601Z,46.88
2022-10-13T04:20:54.077Z,47.01
2022-10-13T04:23:00.019Z,47.16
2022-10-13T04:25:07.225Z,47.27
2022-10-13T04:27:13.265Z,47.30
2022-10-13T04:29:19.357Z,47.41
2022-10-13T04:31:27.733Z,47.52
2022-10-13T04:33:35.012Z,47.68
2022-10-13T04:35:43.484Z,47.73
2022-10-13T04:37:49.703Z,47.94
2022-10-13T04:39:56.179Z,48.01
2022-10-13T04:42:03.330Z,48.13
2022-10-13T04:44:10.672Z,48.17
2022-10-13T04:46:20.491Z,48.27
2022-10-13T04:48:27.552Z,48.35
2022-10-13T04:50:33.743Z,48.49
2022-10-13T04:52:39.821Z,48.49
2022-10-13T04:54:46.198Z,48.58
2022-10-13T04:56:52.381Z,48.62
2022-10-13T04:58:58.612Z,48.74
2022-10-13T05:01:06.905Z,48.88
2022-10-13T05:03:13.006Z,49.03
2022-10-13T05:05:19.840Z,49.05
2022-10-13T05:07:25.959Z,49.20
2022-10-13T05:09:32.483Z,49.37
2022-10-13T05:11:39.640Z,49.49
2022-10-13T05:13:46.337Z,49.64
2022-10-13T05:15:52.979Z,49.81
2022-10-13T05:18:01.667Z,50.02
2022-10-13T05:20:08.204Z,50.34
2022-10-13T05:22:14.451Z,50.41
2022-10-13T05:24:31.809Z,50.65
2022-10-13T05:26:38.034Z,50.73
2022-10-13T05:28:45.281Z,50.80
2022-10-13T05:30:51.775Z,50.92
2022-10-13T05:32:59.137Z,51.12
2022-10-13T05:35:06.483Z,51.19
2022-10-13T05:37:12.995Z,51.38
2022-10-13T05:39:19.764Z,51.49
2022-10-13T05:41:27.502Z,51.65
2022-10-13T05:43:35.092Z,51.85
2022-10-13T05:45:42.494Z,52.06
2022-10-13T05:47:49.064Z,52.25
2022-10-13T05:49:56.653Z,52.48
2022-10-13T05:52:05.581Z,52.60
2022-10-13T05:54:16.253Z,52.73
2022-10-13T05:56:28.117Z,52.81
2022-10-13T05:58:49.071Z,53.02
2022-10-13T06:00:56.338Z,53.11
2022-10-13T06:03:17.021Z,53.18
2022-10-13T06:05:27.879Z,53.25
2022-10-13T06:07:35.741Z,53.38
2022-10-13T06:09:43.298Z,53.40
2022-10-13T06:11:49.742Z,53.57
2022-10-13T06:13:57.799Z,53.67
2022-10-13T06:16:05.162Z,53.75
2022-10-13T06:18:11.683Z,53.82
2022-10-13T06:20:17.817Z,53.79
2022-10-13T06:22:24.314Z,53.95
2022-10-13T06:24:31.095Z,54.05
2022-10-13T06:26:37.413Z,54.04
2022-10-13T06:28:47.620Z,54.14
2022-10-13T06:30:58.253Z,54.20
2022-10-13T06:33:04.692Z,54.31
2022-10-13T06:35:12.514Z,54.45
2022-10-13T06:37:22.134Z,54.55
2022-10-13T06:39:31.028Z,54.69
2022-10-13T06:41:40.535Z,54.85
2022-10-13T06:43:47.110Z,54.86
2022-10-13T06:45:58.662Z,55.00
2022-10-13T06:48:07.097Z,55.14
2022-10-13T06:50:14.057Z,55.12
2022-10-13T06:52:20.503Z,55.19
2022-10-13T06:54:26.805Z,55.32
2022-10-13T06:56:32.874Z,55.40
2022-10-13T06:58:42.158Z,55.56
2022-10-13T07:00:48.283Z,55.50
2022-10-13T07:02:55.383Z,55.65
2022-10-13T07:05:01.755Z,55.68
2022-10-13T07:07:08.388Z,55.84
2022-10-13T07:09:14.937Z,55.92
2022-10-13T07:11:20.940Z,55.97
2022-10-13T07:13:32.430Z,56.10
2022-10-13T07:15:42.511Z,56.15
2022-10-13T07:17:48.670Z,56.29
2022-10-13T07:19:57.880Z,56.35
2022-10-13T07:22:04.531Z,56.40
2022-10-13T07:24:12.654Z,56.47
2022-10-13T07:26:18.809Z,56.61
2022-10-13T07:28:29.331Z,56.66
2022-10-13T07:30:35.506Z,56.86
2022-10-13T07:32:43.315Z,56.85
2022-10-13T07:34:49.685Z,56.89
2022-10-13T07:36:56.096Z,56.88
2022-10-13T07:39:04.339Z,56.84
2022-10-13T07:41:12.605Z,56.99
2022-10-13T07:43:18.992Z,57.24
2022-10-13T07:45:25.483Z,57.40
2022-10-13T07:47:31.554Z,57.54
2022-10-13T07:49:38.121Z,57.64
2022-10-13T07:51:45.515Z,57.64
2022-10-13T07:53:52.087Z,57.67
2022-10-13T07:56:02.542Z,57.79
2022-10-13T07:58:09.267Z,57.86
2022-10-13T08:00:15.706Z,57.97
2022-10-13T08:02:22.432Z,58.02
2022-10-13T08:04:36.178Z,58.13
2022-10-13T08:06:43.682Z,58.24
2022-10-13T08:08:49.827Z,58.35
2022-10-13T08:10:56.240Z,58.43
2022-10-13T08:13:03.330Z,58.46
2022-10-13T08:15:11.551Z,58.50
2022-10-13T08:17:18.811Z,58.52
2022-10-13T08:19:27.626Z,58.55
2022-10-13T08:24:01.431Z,58.64
2022-10-13T08:26:14.076Z,58.74
2022-10-13T08:28:32.402Z,58.74
2022-10-13T08:30:39.436Z,58.80
2022-10-13T08:32:46.174Z,58.91
2022-10-13T08:34:52.497Z,58.90
2022-10-13T08:36:58.767Z,58.95
2022-10-13T08:39:05.674Z,58.88
2022-10-13T08:41:42.705Z,58.77
2022-10-13T08:44:33.947Z,58.87
2022-10-13T08:46:41.590Z,58.90
2022-10-13T08:48:47.923Z,58.87
2022-10-13T08:50:57.991Z,59.02
2022-10-13T08:53:29.476Z,59.07
2022-10-13T08:55:59.885Z,59.13
2022-10-13T08:58:38.146Z,59.30
2022-10-13T09:00:44.899Z,59.48
2022-10-13T09:02:52.356Z,59.55
2022-10-13T09:05:03.943Z,59.48
2022-10-13T09:07:16.132Z,59.56
2022-10-13T09:09:23.639Z,59.71
2022-10-13T09:11:41.729Z,59.86
2022-10-13T09:13:48.341Z,59.84
2022-10-13T09:15:54.615Z,59.74
2022-10-13T09:18:13.886Z,59.74
2022-10-13T09:20:24.760Z,60.02
2022-10-13T09:22:35.755Z,60.03
2022-10-13T09:24:42.449Z,60.20
2022-10-13T09:26:51.296Z,60.39
2022-10-13T09:28:57.500Z,60.58
2022-10-13T09:31:11.701Z,60.68
2022-10-13T09:33:25.672Z,60.68
2022-10-13T09:35:33.625Z,60.73
2022-10-13T09:37:40.945Z,60.71
2022-10-13T09:39:47.251Z,60.94
2022-10-13T09:41:54.552Z,61.01
2022-10-13T09:44:10.753Z,61.00
2022-10-13T09:46:38.080Z,60.91
2022-10-13T09:48:47.143Z,61.01
2022-10-13T09:50:57.029Z,61.22
2022-10-13T09:53:37.968Z,61.19
2022-10-13T09:55:44.397Z,61.36
2022-10-13T09:57:54.779Z,61.32
2022-10-13T10:00:27.212Z,61.33
2022-10-13T10:02:59.261Z,61.51
2022-10-13T10:05:27.534Z,61.59
2022-10-13T10:07:35.581Z,61.73
2022-10-13T10:09:49.129Z,61.81
2022-10-13T10:12:00.546Z,61.82
2022-10-13T10:14:35.979Z,61.99
2022-10-13T10:16:48.002Z,61.87
2022-10-13T10:18:58.885Z,62.05
2022-10-13T10:21:18.934Z,62.25
2022-10-13T10:23:37.443Z,62.06
2022-10-13T10:25:52.659Z,62.21
2022-10-13T10:28:34.248Z,62.20
2022-10-13T10:30:49.066Z,62.46
2022-10-13T10:33:07.102Z,62.52
2022-10-13T10:35:37.784Z,62.59
2022-10-13T10:38:03.314Z,62.61
2022-10-13T10:40:38.326Z,62.79
2022-10-13T10:42:59.213Z,62.84
2022-10-13T10:45:14.519Z,62.92
2022-10-13T10:47:28.835Z,63.03
2022-10-13T10:49:38.265Z,63.05
2022-10-13T10:51:45.021Z,63.26
2022-10-13T10:53:56.888Z,63.26
2022-10-13T10:56:14.805Z,63.21
2022-10-13T10:59:01.659Z,63.32
2022-10-13T11:01:13.743Z,63.41
2022-10-13T11:03:31.366Z,63.56
2022-10-13T11:05:59.449Z,63.46
2022-10-13T11:08:05.702Z,63.53
2022-10-13T11:10:15.275Z,63.40
2022-10-13T11:12:21.776Z,63.58
2022-10-13T11:14:32.224Z,63.54
2022-10-13T11:17:07.862Z,63.48
2022-10-13T11:19:34.047Z,63.55
2022-10-13T11:21:55.523Z,63.64
2022-10-13T11:24:02.370Z,63.72
2022-10-13T11:26:44.988Z,63.70
2022-10-13T11:28:52.729Z,63.95
2022-10-13T11:31:30.694Z,64.01
2022-10-13T11:33:41.511Z,64.08
2022-10-13T11:35:47.892Z,64.20
2022-10-13T11:38:07.203Z,64.22
2022-10-13T11:40:22.318Z,64.51
2022-10-13T11:42:34.746Z,64.28
2022-10-13T11:44:52.853Z,64.49
2022-10-13T11:47:26.604Z,64.69
2022-10-13T11:50:03.703Z,64.61
2022-10-13T11:52:19.557Z,64.74
2022-10-13T11:54:33.172Z,64.87
2022-10-13T11:56:50.713Z,64.92
2022-10-13T11:58:57.438Z,64.96
2022-10-13T12:01:09.539Z,65.03
2022-10-13T12:03:22.835Z,64.91
2022-10-13T12:05:30.969Z,65.08
2022-10-13T12:07:42.695Z,65.01
2022-10-13T12:09:52.950Z,65.04
2022-10-13T12:12:11.495Z,65.16
2022-10-13T12:14:40.102Z,65.10
2022-10-13T12:16:57.466Z,65.17
2022-10-13T12:19:21.677Z,65.28
2022-10-13T12:21:28.265Z,65.11
2022-10-13T12:23:34.864Z,65.33
2022-10-13T12:25:41.575Z,65.39
2022-10-13T12:27:53.669Z,65.41
2022-10-13T12:30:01.855Z,65.48
2022-10-13T12:32:23.351Z,65.50
2022-10-13T12:34:37.096Z,65.49
2022-10-13T12:36:46.806Z,65.59
2022-10-13T12:38:55.655Z,65.64
2022-10-13T12:41:02.747Z,65.67
2022-10-13T12:43:09.284Z,65.60
2022-10-13T12:45:21.737Z,65.60
2022-10-13T12:47:55.049Z,65.47
2022-10-13T12:50:24.308Z,65.62
2022-10-13T12:52:31.491Z,65.58
2022-10-13T12:54:40.802Z,65.60
2022-10-13T12:56:48.736Z,65.65
2022-10-13T12:58:56.988Z,65.65
2022-10-13T13:01:15.663Z,65.82
2022-10-13T13:03:27.674Z,65.80
2022-10-13T13:05:38.420Z,65.80
2022-10-13T13:07:54.066Z,65.94
2022-10-13T13:10:10.298Z,65.77
2022-10-13T13:12:27.698Z,65.92
2022-10-13T13:14:33.695Z,65.86
2022-10-13T13:16:39.707Z,65.83
2022-10-13T13:18:48.163Z,65.88
2022-10-13T13:20:55.715Z,65.87
2022-10-13T13:23:02.610Z,65.97
2022-10-13T13:25:09.113Z,65.90
2022-10-13T13:27:20.159Z,65.87
2022-10-13T13:29:26.612Z,65.96
2022-10-13T13:31:33.163Z,65.97
2022-10-13T13:33:39.508Z,65.99
2022-10-13T13:35:45.588Z,66.02
2022-10-13T13:37:54.157Z,66.03
2022-10-13T13:40:00.600Z,66.05
2022-10-13T13:42:07.151Z,66.12
2022-10-13T13:44:15.821Z,66.12
2022-10-13T13:46:25.831Z,66.07
2022-10-13T13:48:32.128Z,66.17
2022-10-13T13:50:39.882Z,66.14
2022-10-13T13:52:46.056Z,66.26
2022-10-13T13:54:53.693Z,66.24
2022-10-13T13:57:00.362Z,66.23
2022-10-13T13:59:07.057Z,66.23
2022-10-13T14:01:14.597Z,66.30
2022-10-13T14:03:20.991Z,66.42
2022-10-13T14:05:27.693Z,66.53
2022-10-13T14:07:34.012Z,66.50
2022-10-13T14:09:41.063Z,66.52
2022-10-13T14:11:49.014Z,66.62
2022-10-13T14:13:55.895Z,66.83
2022-10-13T14:16:06.696Z,66.66
2022-10-13T14:18:14.819Z,66.76
2022-10-13T14:20:21.757Z,66.89
2022-10-13T14:22:28.028Z,67.04
2022-10-13T14:24:34.803Z,66.99
2022-10-13T14:26:42.867Z,67.03
2022-10-13T14:28:48.992Z,67.17
2022-10-13T14:30:55.453Z,67.21
2022-10-13T14:33:03.183Z,67.26
2022-10-13T14:35:10.740Z,67.32
2022-10-13T14:37:19.829Z,67.53
2022-10-13T14:39:28.398Z,67.48
2022-10-13T14:41:34.538Z,67.56
2022-10-13T14:43:41.391Z,67.63
2022-10-13T14:45:47.990Z,67.55
2022-10-13T14:47:54.698Z,67.68
2022-10-13T14:50:02.998Z,67.59
2022-10-13T14:52:10.117Z,67.63
2022-10-13T14:54:16.924Z,67.75
2022-10-13T14:56:28.068Z,67.69
2022-10-13T14:58:35.039Z,67.73
2022-10-13T15:00:44.261Z,67.72
2022-10-13T15:02:51.514Z,67.72
2022-10-13T15:04:59.049Z,67.82
2022-10-13T15:07:05.371Z,67.84
2022-10-13T15:09:15.735Z,68.01
2022-10-13T15:11:24.180Z,68.03
2022-10-13T15:13:31.601Z,67.92
2022-10-13T15:15:38.322Z,68.16
2022-10-13T15:17:44.915Z,68.55
2022-10-13T15:19:51.214Z,68.57
2022-10-13T15:21:57.492Z,68.66
2022-10-13T15:24:03.892Z,68.29
2022-10-13T15:26:11.910Z,68.07
2022-10-13T15:28:18.114Z,67.63
2022-10-13T15:30:24.573Z,67.13
2022-10-13T15:32:31.222Z,66.58
2022-10-13T15:34:43.571Z,66.19
2022-10-13T15:36:50.308Z,65.63
2022-10-13T15:38:56.938Z,65.30
2022-10-13T15:41:05.248Z,64.83
2022-10-13T15:43:11.848Z,64.49
2022-10-13T15:45:19.558Z,64.16
2022-10-13T15:47:25.994Z,63.81
2022-10-13T15:49:32.236Z,63.40
2022-10-13T15:51:39.311Z,63.02
2022-10-13T15:53:45.938Z,62.71
2022-10-13T15:55:52.852Z,62.40
2022-10-13T15:57:59.415Z,62.16
2022-10-13T16:00:08.158Z,61.84
2022-10-13T16:02:20.431Z,61.38
2022-10-13T16:04:26.692Z,61.14
2022-10-13T16:06:34.677Z,60.69
2022-10-13T16:08:42.595Z,60.23
2022-10-13T16:10:48.824Z,60.06
2022-10-13T16:12:55.582Z,59.50
2022-10-13T16:15:02.395Z,59.13
2022-10-13T16:17:08.787Z,58.84
2022-10-13T16:19:15.341Z,58.52
2022-10-13T16:21:27.075Z,58.22
2022-10-13T16:23:33.583Z,57.68
2022-10-13T16:25:41.067Z,57.38
2022-10-13T16:27:47.452Z,57.04
2022-10-13T16:29:54.094Z,56.52
2022-10-13T16:32:01.713Z,56.12
2022-10-13T16:34:08.958Z,55.81
2022-10-13T16:36:21.188Z,55.05
2022-10-13T16:38:29.925Z,54.49
2022-10-13T16:40:40.225Z,53.73
2022-10-13T16:42:47.496Z,53.21
2022-10-13T16:44:53.996Z,52.92
2022-10-13T16:47:05.751Z,52.43
2022-10-13T16:49:16.109Z,52.05
2022-10-13T16:51:26.014Z,51.59
2022-10-13T16:53:32.654Z,51.23
2022-10-13T16:55:41.800Z,50.72
2022-10-13T16:57:49.182Z,50.12
2022-10-13T16:59:55.435Z,50.01
2022-10-13T17:02:04.492Z,49.48
2022-10-13T17:04:11.222Z,48.91
2022-10-13T17:06:19.555Z,48.55
2022-10-13T17:08:33.711Z,47.98
2022-10-13T17:10:41.198Z,47.52
2022-10-13T17:12:48.131Z,47.18
2022-10-13T17:14:54.835Z,46.87
2022-10-13T17:17:01.627Z,46.37
2022-10-13T17:19:08.369Z,46.20
2022-10-13T17:21:19.662Z,46.02
2022-10-13T17:23:27.204Z,45.61
2022-10-13T17:25:36.284Z,45.19
2022-10-13T17:27:44.196Z,44.90
2022-10-13T17:29:51.110Z,44.56
2022-10-13T17:31:57.503Z,44.18
2022-10-13T17:34:04.140Z,43.63
2022-10-13T17:36:16.155Z,43.20
2022-10-13T17:38:22.554Z,42.75
2022-10-13T17:40:28.812Z,42.98
2022-10-13T17:42:35.449Z,42.24
2022-10-13T17:44:43.222Z,42.22
2022-10-13T17:46:54.309Z,42.13
2022-10-13T17:49:01.957Z,42.06
2022-10-13T17:51:10.408Z,41.93
2022-10-13T17:53:17.450Z,41.78
2022-10-13T17:55:24.174Z,41.51
2022-10-13T17:57:31.673Z,41.20
2022-10-13T17:59:42.173Z,41.17
2022-10-13T18:01:48.782Z,40.88
2022-10-13T18:03:58.348Z,40.85
2022-10-13T18:06:09.175Z,40.33
2022-10-13T18:08:15.958Z,40.19
2022-10-13T18:10:24.105Z,40.33
2022-10-13T18:12:31.584Z,39.99
2022-10-13T18:14:38.279Z,39.83
2022-10-13T18:16:45.127Z,39.70
2022-10-13T18:18:53.011Z,39.38
2022-10-13T18:21:02.174Z,39.34
2022-10-13T18:23:08.167Z,39.10
2022-10-13T18:25:15.145Z,39.01
2022-10-13T18:27:21.579Z,39.10
2022-10-13T18:29:28.426Z,38.89
2022-10-13T18:31:38.159Z,38.53
2022-10-13T18:33:44.610Z,38.16
2022-10-13T18:35:50.897Z,38.10
2022-10-13T18:37:57.538Z,37.94
2022-10-13T18:40:04.218Z,37.60
2022-10-13T18:42:11.118Z,37.61
2022-10-13T18:44:18.179Z,37.50
2022-10-13T18:46:25.050Z,37.50
2022-10-13T18:48:32.451Z,37.06
2022-10-13T18:50:39.651Z,36.86
2022-10-13T18:52:46.094Z,36.46
2022-10-13T18:54:52.209Z,36.17
2022-10-13T18:56:59.832Z,36.19
2022-10-13T18:59:08.973Z,35.88
2022-10-13T19:01:18.876Z,35.63
2022-10-13T19:03:25.592Z,35.67
2022-10-13T19:05:31.929Z,35.12
2022-10-13T19:07:39.315Z,34.59
2022-10-13T19:09:46.210Z,34.52
2022-10-13T19:11:52.479Z,34.44
2022-10-13T19:14:02.072Z,34.14
2022-10-13T19:16:10.164Z,34.22
2022-10-13T19:18:16.180Z,33.97
2022-10-13T19:20:24.582Z,33.69
2022-10-13T19:22:31.126Z,33.49
2022-10-13T19:24:37.865Z,33.10
2022-10-13T19:26:43.922Z,32.54
2022-10-13T19:28:50.290Z,32.14
2022-10-13T19:30:56.372Z,32.16
2022-10-13T19:33:03.436Z,31.62
2022-10-13T19:35:10.959Z,31.63
2022-10-13T19:37:18.207Z,31.57
2022-10-13T19:39:27.670Z,31.38
2022-10-13T19:41:35.156Z,31.29
2022-10-13T19:43:42.386Z,30.96
2022-10-13T19:45:59.490Z,30.93
2022-10-13T19:48:06.887Z,31.16
2022-10-13T19:50:13.511Z,31.37
2022-10-13T19:52:21.086Z,31.28
2022-10-13T19:54:32.919Z,30.98
2022-10-13T19:56:40.395Z,31.05
2022-10-13T19:58:47.117Z,31.02
2022-10-13T20:00:54.315Z,31.22
2022-10-13T20:03:01.026Z,31.22
2022-10-13T20:05:07.773Z,31.25
2022-10-13T20:07:14.380Z,31.41
2022-10-13T20:09:20.796Z,31.24
2022-10-13T20:11:28.030Z,31.26
2022-10-13T20:13:34.452Z,31.70
2022-10-13T20:15:43.047Z,31.80
2022-10-13T20:17:49.267Z,31.43
2022-10-13T20:19:55.449Z,31.59
2022-10-13T20:22:02.699Z,31.83
2022-10-13T20:24:09.322Z,31.95
2022-10-13T20:26:15.996Z,31.61
2022-10-13T20:28:22.301Z,31.74
2022-10-13T20:30:28.726Z,31.80
2022-10-13T20:32:35.160Z,31.61
2022-10-13T20:34:41.592Z,31.62
2022-10-13T20:36:48.433Z,31.76
2022-10-13T20:38:55.694Z,31.67
2022-10-13T20:41:11.714Z,31.59
2022-10-13T20:43:21.178Z,31.53
2022-10-13T20:45:29.623Z,31.56
2022-10-13T20:47:36.197Z,31.55
2022-10-13T20:49:42.569Z,31.90
2022-10-13T20:51:48.916Z,32.09
2022-10-13T20:53:55.925Z,32.23
2022-10-13T20:56:04.737Z,31.99
2022-10-13T20:58:11.295Z,32.09
2022-10-13T21:00:17.853Z,31.60
2022-10-13T21:02:24.335Z,31.53
2022-10-13T21:04:31.472Z,31.64
2022-10-13T21:06:37.982Z,31.76
2022-10-13T21:08:46.928Z,31.64
2022-10-13T21:10:53.303Z,31.81
2022-10-13T21:13:00.796Z,31.80
2022-10-13T21:15:09.628Z,31.42
2022-10-13T21:17:16.266Z,31.24
2022-10-13T21:19:23.439Z,31.30
2022-10-13T21:21:34.899Z,31.00
2022-10-13T21:23:41.792Z,31.33
2022-10-13T21:25:48.334Z,31.16
2022-10-13T21:27:55.309Z,31.18
2022-10-13T21:30:01.883Z,31.28
2022-10-13T21:32:08.199Z,31.59
2022-10-13T21:34:14.744Z,31.41
2022-10-13T21:36:22.192Z,31.37
2022-10-13T21:38:28.692Z,31.16
2022-10-13T21:40:34.670Z,31.20
2022-10-13T21:42:40.838Z,31.18
2022-10-13T21:44:46.970Z,31.12
2022-10-13T21:46:53.288Z,31.01
2022-10-13T21:49:01.722Z,31.31
2022-10-13T21:51:16.795Z,31.40
2022-10-13T21:53:25.484Z,31.55
2022-10-13T21:55:33.936Z,31.39
2022-10-13T21:57:40.376Z,31.45
2022-10-13T21:59:46.924Z,31.48
2022-10-13T22:01:53.660Z,31.46
2022-10-13T22:04:01.934Z,31.59
2022-10-13T22:06:19.342Z,31.26
2022-10-13T22:08:37.932Z,31.70
2022-10-13T22:10:58.600Z,32.09
2022-10-13T22:13:05.449Z,31.90
2022-10-13T22:15:12.755Z,31.61
2022-10-13T22:17:19.463Z,31.59
2022-10-13T22:19:26.726Z,31.60
2022-10-13T22:21:38.621Z,31.82
2022-10-13T22:23:45.969Z,31.60
2022-10-13T22:25:52.380Z,31.56
2022-10-13T22:27:58.731Z,31.83
2022-10-13T22:30:05.780Z,31.65
2022-10-13T22:32:12.031Z,31.38
2022-10-13T22:34:18.975Z,31.61
2022-10-13T22:36:26.816Z,31.53
2022-10-13T22:38:33.123Z,31.43
2022-10-13T22:40:43.227Z,31.44
2022-10-13T22:42:50.462Z,31.57
2022-10-13T22:44:56.941Z,31.76
2022-10-13T22:47:03.189Z,31.87
2022-10-13T22:49:10.232Z,31.60
2022-10-13T22:51:22.280Z,31.41
2022-10-13T22:53:29.488Z,31.37
2022-10-13T22:55:35.968Z,31.49
2022-10-13T22:57:42.327Z,31.88
2022-10-13T22:59:48.437Z,32.06
2022-10-13T23:01:55.555Z,32.10
2022-10-13T23:04:03.104Z,31.90
2022-10-13T23:06:14.863Z,32.06
2022-10-13T23:08:21.272Z,32.03
2022-10-13T23:10:27.924Z,32.20
2022-10-13T23:12:34.220Z,31.99
2022-10-13T23:14:40.788Z,31.57
2022-10-13T23:16:47.790Z,31.75
2022-10-13T23:18:54.598Z,31.83
2022-10-13T23:21:15.085Z,32.18
2022-10-13T23:23:21.423Z,32.39
2022-10-13T23:25:28.118Z,32.39
2022-10-13T23:27:34.224Z,32.00
2022-10-13T23:29:40.288Z,31.65
2022-10-13T23:31:46.475Z,31.55
2022-10-13T23:33:53.422Z,31.32
2022-10-13T23:36:02.339Z,31.40
2022-10-13T23:38:08.697Z,31.45
2022-10-13T23:40:15.028Z,31.61
2022-10-13T23:42:21.465Z,31.81
2022-10-13T23:44:27.807Z,31.66
2022-10-13T23:46:34.246Z,31.78
2022-10-13T23:48:41.325Z,32.09
2022-10-13T23:50:47.501Z,32.06
2022-10-13T23:52:53.655Z,32.29
2022-10-13T23:54:59.745Z,32.60
2022-10-13T23:57:07.467Z,32.84
2022-10-13T23:59:13.574Z,33.08
